createdAt,value
2023-04-08T00:01:36.180Z,10.93
2023-04-08T00:06:28.304Z,11.07
2023-04-08T00:11:20.428Z,11.30
2023-04-08T00:16:12.406Z,12.43
2023-04-08T00:21:04.745Z,12.90
2023-04-08T00:25:56.760Z,12.63
2023-04-08T00:30:48.755Z,12.80
2023-04-08T00:35:41.189Z,13.03
2023-04-08T00:40:33.339Z,13.50
2023-04-08T00:45:26.030Z,12.43
2023-04-08T00:50:18.630Z,14.40
2023-04-08T00:55:10.840Z,13.90
2023-04-08T01:00:05.971Z,14.53
2023-04-08T01:11:35.176Z,15.07
2023-04-08T01:16:27.802Z,14.97
2023-04-08T01:21:22.268Z,13.27
2023-04-08T01:26:22.754Z,13.87
2023-04-08T01:31:18.295Z,13.83
2023-04-08T01:36:11.317Z,13.83
2023-04-08T01:41:05.731Z,14.87
2023-04-08T01:45:58.838Z,14.13
2023-04-08T01:50:52.058Z,13.70
2023-04-08T01:55:46.474Z,11.53
2023-04-08T02:00:42.828Z,11.30
2023-04-08T02:05:35.027Z,11.43
2023-04-08T02:10:28.350Z,11.20
2023-04-08T02:15:21.969Z,10.43
2023-04-08T02:20:19.126Z,10.40
2023-04-08T02:25:16.490Z,9.37
2023-04-08T02:30:10.971Z,9.37
2023-04-08T02:35:06.932Z,8.07
2023-04-08T02:39:59.293Z,9.03
2023-04-08T02:44:52.040Z,8.23
2023-04-08T02:49:44.173Z,8.20
2023-04-08T02:54:36.253Z,7.07
2023-04-08T02:59:28.233Z,7.40
2023-04-08T03:04:20.370Z,7.47
2023-04-08T03:09:12.340Z,6.97
2023-04-08T03:14:04.371Z,6.57
2023-04-08T03:18:57.737Z,6.90
2023-04-08T03:23:49.740Z,6.47
2023-04-08T03:28:41.761Z,5.73
2023-04-08T03:33:33.890Z,5.83
2023-04-08T03:38:26.010Z,5.80
2023-04-08T03:43:19.667Z,4.63
2023-04-08T03:48:12.801Z,4.93
2023-04-08T03:53:04.924Z,5.00
2023-04-08T03:57:56.930Z,5.40
2023-04-08T04:02:49.003Z,4.90
2023-04-08T04:07:41.016Z,4.67
2023-04-08T04:12:34.209Z,4.37
2023-04-08T04:17:26.326Z,5.10
2023-04-08T04:22:18.424Z,4.33
2023-04-08T04:27:10.411Z,4.93
2023-04-08T04:32:02.350Z,5.33
2023-04-08T04:36:54.394Z,5.80
2023-04-08T04:41:47.500Z,5.47
2023-04-08T04:46:39.612Z,6.23
2023-04-08T04:51:33.271Z,5.47
2023-04-08T04:56:26.656Z,6.80
2023-04-08T05:01:18.672Z,6.50
2023-04-08T05:06:10.976Z,6.13
2023-04-08T05:11:02.974Z,5.60
2023-04-08T05:15:55.271Z,5.47
2023-04-08T05:20:47.435Z,6.07
2023-04-08T05:25:39.386Z,5.50
2023-04-08T05:30:31.544Z,6.53
2023-04-08T05:35:24.806Z,5.90
2023-04-08T05:40:18.035Z,6.60
2023-04-08T05:45:10.607Z,7.83
2023-04-08T05:50:02.652Z,6.70
2023-04-08T05:54:54.657Z,11.43
2023-04-08T05:59:46.796Z,13.03
2023-04-08T06:04:38.936Z,10.10
2023-04-08T06:09:31.053Z,8.07
2023-04-08T06:14:23.006Z,7.60
2023-04-08T06:19:15.613Z,8.90
2023-04-08T06:24:07.714Z,10.33
2023-04-08T06:28:59.935Z,10.73
2023-04-08T06:33:52.495Z,12.13
2023-04-08T06:38:44.424Z,12.43
2023-04-08T06:43:38.052Z,14.10
2023-04-08T06:48:30.851Z,15.87
2023-04-08T06:53:24.962Z,15.30
2023-04-08T06:58:17.375Z,15.47
2023-04-08T07:03:09.730Z,17.43
2023-04-08T07:08:01.773Z,16.33
2023-04-08T07:12:54.648Z,15.70
2023-04-08T07:17:47.649Z,17.27
2023-04-08T07:22:40.649Z,16.70
2023-04-08T07:27:34.320Z,15.77
2023-04-08T07:32:27.569Z,34.13
2023-04-08T07:37:19.678Z,15.57
2023-04-08T07:42:12.090Z,10.63
2023-04-08T07:47:04.330Z,9.23
2023-04-08T07:51:57.577Z,5.97
2023-04-08T07:56:49.606Z,5.30
2023-04-08T08:01:41.817Z,5.30
2023-04-08T08:06:33.870Z,5.70
2023-04-08T08:11:28.015Z,4.60
2023-04-08T08:16:20.446Z,5.70
2023-04-08T08:21:12.689Z,3.80
2023-04-08T08:26:12.252Z,4.03
2023-04-08T08:31:06.348Z,4.23
2023-04-08T08:35:58.654Z,4.47
2023-04-08T08:40:57.908Z,4.83
2023-04-08T08:45:50.092Z,5.87
2023-04-08T08:50:42.128Z,5.70
2023-04-08T08:56:02.168Z,6.10
2023-04-08T09:00:47.432Z,6.03
2023-04-08T09:05:59.499Z,7.43
2023-04-08T09:10:51.553Z,7.33
2023-04-08T09:16:08.474Z,8.23
2023-04-08T09:21:02.204Z,7.90
2023-04-08T09:26:07.027Z,7.97
2023-04-08T09:30:58.961Z,7.60
2023-04-08T09:35:52.239Z,8.10
2023-04-08T09:40:45.424Z,9.23
2023-04-08T09:45:41.326Z,9.57
2023-04-08T09:50:40.656Z,8.70
2023-04-08T09:55:36.498Z,8.17
2023-04-08T10:00:34.579Z,9.33
2023-04-08T10:05:27.673Z,9.97
2023-04-08T10:10:20.836Z,9.33
2023-04-08T10:15:29.475Z,10.27
2023-04-08T10:20:36.748Z,9.03
2023-04-08T10:25:34.593Z,9.43
2023-04-08T10:30:31.590Z,10.23
2023-04-08T10:35:31.421Z,9.07
2023-04-08T10:40:23.526Z,9.63
2023-04-08T10:45:18.437Z,8.57
2023-04-08T10:50:16.650Z,9.20
2023-04-08T10:55:09.209Z,7.87
2023-04-08T11:00:01.284Z,7.83
2023-04-08T11:04:54.557Z,7.73
2023-04-08T11:09:46.539Z,8.97
2023-04-08T11:14:41.285Z,9.83
2023-04-08T11:19:36.078Z,11.43
2023-04-08T11:24:28.688Z,11.97
2023-04-08T11:29:21.228Z,14.47
2023-04-08T11:34:21.885Z,15.17
2023-04-08T11:39:13.842Z,15.60
2023-04-08T11:44:07.255Z,15.00
2023-04-08T11:49:08.077Z,13.47
2023-04-08T11:54:02.255Z,14.63
2023-04-08T11:58:54.278Z,15.20
2023-04-08T12:04:00.851Z,15.03
2023-04-08T12:08:54.184Z,16.10
2023-04-08T12:13:46.151Z,15.67
2023-04-08T12:18:38.510Z,16.67
2023-04-08T12:23:30.441Z,16.73
2023-04-08T12:28:22.522Z,18.17
2023-04-08T12:33:14.470Z,17.77
2023-04-08T12:38:06.938Z,18.40
2023-04-08T12:42:58.855Z,18.53
2023-04-08T12:47:51.429Z,19.83
2023-04-08T12:52:43.433Z,18.30
2023-04-08T12:57:35.465Z,20.47
2023-04-08T13:02:27.701Z,18.10
2023-04-08T13:07:20.095Z,18.17
2023-04-08T13:12:12.318Z,16.93
2023-04-08T13:17:04.978Z,17.57
2023-04-08T13:21:57.216Z,16.63
2023-04-08T13:26:49.612Z,17.63
2023-04-08T13:31:41.772Z,15.00
2023-04-08T13:36:33.833Z,15.40
2023-04-08T13:41:26.210Z,14.73
2023-04-08T13:46:18.506Z,15.03
2023-04-08T13:51:10.516Z,15.83
2023-04-08T13:56:03.751Z,12.90
2023-04-08T14:00:56.486Z,12.60
2023-04-08T14:05:49.141Z,13.10
2023-04-08T14:10:43.103Z,12.97
2023-04-08T14:15:35.137Z,12.73
2023-04-08T14:20:27.191Z,13.07
2023-04-08T14:25:19.140Z,21.07
2023-04-08T14:30:11.356Z,12.90
2023-04-08T14:35:03.358Z,12.80
2023-04-08T14:39:55.382Z,14.37
2023-04-08T14:44:47.278Z,13.73
2023-04-08T14:49:39.257Z,12.60
2023-04-08T14:54:31.304Z,12.00
2023-04-08T14:59:23.265Z,12.60
2023-04-08T15:04:15.317Z,12.37
2023-04-08T15:09:07.484Z,11.87
2023-04-08T15:13:59.477Z,12.43
2023-04-08T15:18:51.563Z,13.63
2023-04-08T15:23:43.716Z,13.40
2023-04-08T15:28:37.974Z,12.43
2023-04-08T15:33:31.556Z,12.43
2023-04-08T15:38:23.670Z,13.37
2023-04-08T15:43:15.778Z,11.90
2023-04-08T15:48:07.822Z,13.60
2023-04-08T15:52:59.861Z,15.27
2023-04-08T15:57:54.098Z,16.10
2023-04-08T16:02:46.686Z,14.60
2023-04-08T16:07:39.007Z,13.87
2023-04-08T16:12:30.980Z,14.93
2023-04-08T16:17:23.129Z,13.13
2023-04-08T16:22:15.355Z,13.93
2023-04-08T16:27:07.385Z,14.67
2023-04-08T16:31:59.426Z,14.17
2023-04-08T16:36:51.970Z,12.47
2023-04-08T16:41:44.814Z,14.37
2023-04-08T16:46:36.891Z,13.00
2023-04-08T16:51:29.212Z,13.60
2023-04-08T16:56:22.115Z,13.97
2023-04-08T17:01:14.567Z,13.30
2023-04-08T17:06:17.327Z,19.13
2023-04-08T17:11:16.105Z,14.10
2023-04-08T17:16:15.970Z,14.23
2023-04-08T17:21:08.797Z,13.13
2023-04-08T17:26:05.311Z,13.93
2023-04-08T17:30:57.506Z,15.60
2023-04-08T17:35:49.728Z,15.87
2023-04-08T17:40:41.812Z,15.03
2023-04-08T17:45:33.866Z,14.43
2023-04-08T17:50:25.994Z,13.57
2023-04-08T17:55:18.075Z,16.53
2023-04-08T18:00:10.627Z,22.63
2023-04-08T18:05:06.581Z,18.63
2023-04-08T18:09:58.552Z,16.30
2023-04-08T18:14:50.637Z,17.07
2023-04-08T18:19:42.634Z,17.33
2023-04-08T18:24:34.628Z,16.50
2023-04-08T18:29:26.636Z,18.10
2023-04-08T18:34:20.781Z,20.20
2023-04-08T18:39:12.706Z,17.53
2023-04-08T18:44:04.759Z,17.60
2023-04-08T18:48:56.861Z,16.30
2023-04-08T18:53:49.958Z,17.20
2023-04-08T18:58:43.024Z,18.90
2023-04-08T19:03:38.630Z,17.30
2023-04-08T19:08:30.640Z,17.67
2023-04-08T19:13:23.883Z,16.80
2023-04-08T19:18:16.185Z,19.37
2023-04-08T19:23:08.210Z,20.30
2023-04-08T19:28:00.269Z,19.63
2023-04-08T19:32:52.345Z,19.40
2023-04-08T19:37:44.322Z,20.13
2023-04-08T19:42:36.604Z,19.67
2023-04-08T19:47:29.458Z,21.87
2023-04-08T19:52:22.062Z,20.20
2023-04-08T19:57:14.059Z,20.03
2023-04-08T20:02:06.685Z,21.40
2023-04-08T20:07:01.200Z,26.40
2023-04-08T20:11:53.186Z,41.23
2023-04-08T20:16:45.347Z,34.33
2023-04-08T20:21:37.855Z,26.27
2023-04-08T20:26:29.924Z,33.33
2023-04-08T20:31:22.518Z,24.57
2023-04-08T20:36:14.673Z,23.77
2023-04-08T20:41:07.189Z,22.97
2023-04-08T20:45:59.525Z,31.23
2023-04-08T20:50:51.878Z,36.53
2023-04-08T20:55:43.871Z,30.77
2023-04-08T21:00:36.016Z,27.50
2023-04-08T21:05:28.012Z,29.97
2023-04-08T21:10:20.083Z,35.50
2023-04-08T21:15:12.074Z,29.27
2023-04-08T21:20:06.590Z,26.27
2023-04-08T21:24:58.620Z,24.80
2023-04-08T21:29:53.693Z,68.90
2023-04-08T21:34:48.836Z,56.83
2023-04-08T21:39:40.835Z,132.13
2023-04-08T21:44:33.336Z,92.17
2023-04-08T21:49:25.379Z,52.40
2023-04-08T21:54:17.479Z,52.17
2023-04-08T21:59:09.456Z,38.63
2023-04-08T22:04:01.612Z,26.10
2023-04-08T22:08:53.948Z,26.13
2023-04-08T22:13:45.992Z,38.67
2023-04-08T22:18:37.974Z,24.63
2023-04-08T22:23:30.022Z,33.83
2023-04-08T22:28:22.272Z,30.40
2023-04-08T22:33:14.305Z,23.67
2023-04-08T22:38:06.462Z,25.57
2023-04-08T22:42:58.491Z,28.13
2023-04-08T22:47:50.566Z,27.57
2023-04-08T22:52:42.643Z,28.10
2023-04-08T22:57:34.961Z,24.97
2023-04-08T23:02:26.967Z,24.13
2023-04-08T23:07:21.838Z,28.03
2023-04-08T23:12:13.841Z,38.23
2023-04-08T23:17:06.236Z,34.77
2023-04-08T23:21:58.222Z,26.93
2023-04-08T23:26:50.194Z,35.77
2023-04-08T23:31:42.237Z,32.17
2023-04-08T23:36:34.270Z,31.73
2023-04-08T23:41:26.490Z,26.03
2023-04-08T23:46:18.502Z,24.20
2023-04-08T23:51:12.008Z,25.13
2023-04-08T23:56:05.892Z,24.73
